sensor_id;sensor_type;location;lat;lon;timestamp;pressure;altitude;pressure_sealevel;temperature;humidity
14293;BME280;62290;59.420;17.842;2023-06-22T00:00:37;100818.44;;;28.33;41.29
14293;BME280;62290;59.420;17.842;2023-06-22T00:03:06;100814.88;;;28.32;41.31
14293;BME280;62290;59.420;17.842;2023-06-22T00:05:34;100825.72;;;28.32;41.47
14293;BME280;62290;59.420;17.842;2023-06-22T00:08:03;100814.19;;;28.30;41.43
14293;BME280;62290;59.420;17.842;2023-06-22T00:10:31;100815.91;;;28.31;41.36
14293;BME280;62290;59.420;17.842;2023-06-22T00:12:59;100828.59;;;28.31;41.45
14293;BME280;62290;59.420;17.842;2023-06-22T00:15:28;100810.63;;;28.30;41.37
14293;BME280;62290;59.420;17.842;2023-06-22T00:17:57;100808.94;;;28.29;41.19
14293;BME280;62290;59.420;17.842;2023-06-22T00:20:26;100806.56;;;28.26;41.41
14293;BME280;62290;59.420;17.842;2023-06-22T00:22:58;100799.28;;;28.26;41.40
14293;BME280;62290;59.420;17.842;2023-06-22T00:25:26;100799.28;;;28.26;41.38
14293;BME280;62290;59.420;17.842;2023-06-22T00:27:54;100798.56;;;28.24;41.35
14293;BME280;62290;59.420;17.842;2023-06-22T00:30:22;100795.88;;;28.24;41.26
14293;BME280;62290;59.420;17.842;2023-06-22T00:32:50;100801.28;;;28.24;41.61
14293;BME280;62290;59.420;17.842;2023-06-22T00:35:20;100815.69;;;28.25;41.36
14293;BME280;62290;59.420;17.842;2023-06-22T00:37:48;100810.44;;;28.23;41.41
14293;BME280;62290;59.420;17.842;2023-06-22T00:40:17;100808.72;;;28.22;41.40
14293;BME280;62290;59.420;17.842;2023-06-22T00:42:48;100806.03;;;28.22;41.48
14293;BME280;62290;59.420;17.842;2023-06-22T00:45:16;100808.91;;;28.21;41.33
14293;BME280;62290;59.420;17.842;2023-06-22T00:47:44;100784.31;;;28.14;41.53
14293;BME280;62290;59.420;17.842;2023-06-22T00:50:20;100804.50;;;28.20;41.66
14293;BME280;62290;59.420;17.842;2023-06-22T00:52:52;100807.38;;;28.18;41.70
14293;BME280;62290;59.420;17.842;2023-06-22T00:55:22;100810.22;;;28.16;41.80
14293;BME280;62290;59.420;17.842;2023-06-22T00:57:50;100801.19;;;28.08;41.85
14293;BME280;62290;59.420;17.842;2023-06-22T01:00:23;100807.69;;;28.15;41.63
14293;BME280;62290;59.420;17.842;2023-06-22T01:02:53;100806.28;;;28.11;41.80
14293;BME280;62290;59.420;17.842;2023-06-22T01:05:22;100804.31;;;28.13;42.05
14293;BME280;62290;59.420;17.842;2023-06-22T01:08:00;100806.16;;;28.12;41.95
14293;BME280;62290;59.420;17.842;2023-06-22T01:10:36;100797.16;;;28.12;41.95
14293;BME280;62290;59.420;17.842;2023-06-22T01:13:10;100814.44;;;28.11;41.97
14293;BME280;62290;59.420;17.842;2023-06-22T01:15:46;100803.59;;;28.11;42.03
14293;BME280;62290;59.420;17.842;2023-06-22T01:18:18;100797.50;;;28.09;42.07
14293;BME280;62290;59.420;17.842;2023-06-22T01:20:49;100793.25;;;28.06;42.21
14293;BME280;62290;59.420;17.842;2023-06-22T01:23:28;100793.06;;;28.08;42.36
14293;BME280;62290;59.420;17.842;2023-06-22T01:26:05;100795.78;;;28.08;42.39
14293;BME280;62290;59.420;17.842;2023-06-22T01:28:43;100794.97;;;28.07;42.39
14293;BME280;62290;59.420;17.842;2023-06-22T01:31:15;100796.81;;;28.07;42.58
14293;BME280;62290;59.420;17.842;2023-06-22T01:33:47;100792.38;;;28.06;42.64
14293;BME280;62290;59.420;17.842;2023-06-22T01:36:17;100796.94;;;28.05;42.65
14293;BME280;62290;59.420;17.842;2023-06-22T01:38:47;100797.13;;;28.04;42.72
14293;BME280;62290;59.420;17.842;2023-06-22T01:41:18;100794.41;;;28.04;42.56
14293;BME280;62290;59.420;17.842;2023-06-22T01:43:48;100795.28;;;28.04;42.73
14293;BME280;62290;59.420;17.842;2023-06-22T01:46:19;100802.53;;;28.04;42.95
14293;BME280;62290;59.420;17.842;2023-06-22T01:48:49;100804.41;;;28.03;42.98
14293;BME280;62290;59.420;17.842;2023-06-22T01:51:18;100792.00;;;28.01;43.12
14293;BME280;62290;59.420;17.842;2023-06-22T01:53:46;100804.56;;;28.02;43.06
14293;BME280;62290;59.420;17.842;2023-06-22T01:56:17;100799.16;;;28.02;43.31
14293;BME280;62290;59.420;17.842;2023-06-22T01:58:50;100800.84;;;28.03;43.38
14293;BME280;62290;59.420;17.842;2023-06-22T02:01:23;100803.53;;;28.03;43.35
14293;BME280;62290;59.420;17.842;2023-06-22T02:03:59;100799.25;;;28.00;43.50
14293;BME280;62290;59.420;17.842;2023-06-22T02:06:33;100800.13;;;28.01;43.43
14293;BME280;62290;59.420;17.842;2023-06-22T02:09:03;100804.84;;;27.99;43.59
14293;BME280;62290;59.420;17.842;2023-06-22T02:11:34;100799.44;;;27.99;43.63
14293;BME280;62290;59.420;17.842;2023-06-22T02:14:06;100800.44;;;27.98;43.80
14293;BME280;62290;59.420;17.842;2023-06-22T02:16:35;100802.31;;;27.97;43.77
14293;BME280;62290;59.420;17.842;2023-06-22T02:19:04;100797.91;;;27.96;44.01
14293;BME280;62290;59.420;17.842;2023-06-22T02:21:33;100793.66;;;27.94;43.82
14293;BME280;62290;59.420;17.842;2023-06-22T02:24:02;100801.47;;;27.97;43.92
14293;BME280;62290;59.420;17.842;2023-06-22T02:26:30;100800.78;;;27.95;43.92
14293;BME280;62290;59.420;17.842;2023-06-22T02:29:01;100799.06;;;27.94;44.06
14293;BME280;62290;59.420;17.842;2023-06-22T02:31:30;100801.91;;;27.92;44.24
14293;BME280;62290;59.420;17.842;2023-06-22T02:33:59;100809.91;;;27.94;44.21
14293;BME280;62290;59.420;17.842;2023-06-22T02:36:27;100807.19;;;27.94;44.22
14293;BME280;62290;59.420;17.842;2023-06-22T02:38:59;100807.19;;;27.94;44.28
14293;BME280;62290;59.420;17.842;2023-06-22T02:41:30;100788.44;;;27.75;44.35
14293;BME280;62290;59.420;17.842;2023-06-22T02:43:58;100814.63;;;27.92;44.36
14293;BME280;62290;59.420;17.842;2023-06-22T02:46:26;100806.50;;;27.92;44.43
14293;BME280;62290;59.420;17.842;2023-06-22T02:48:55;100807.69;;;27.89;44.56
14293;BME280;62290;59.420;17.842;2023-06-22T02:51:23;100810.03;;;27.92;44.60
14293;BME280;62290;59.420;17.842;2023-06-22T02:53:51;100803.94;;;27.90;44.55
14293;BME280;62290;59.420;17.842;2023-06-22T02:56:28;100801.25;;;27.90;44.80
14293;BME280;62290;59.420;17.842;2023-06-22T02:58:59;100809.38;;;27.90;44.43
14293;BME280;62290;59.420;17.842;2023-06-22T03:01:33;100808.50;;;27.90;44.64
14293;BME280;62290;59.420;17.842;2023-06-22T03:04:07;100791.16;;;27.75;44.59
14293;BME280;62290;59.420;17.842;2023-06-22T03:06:36;100818.66;;;27.88;44.76
14293;BME280;62290;59.420;17.842;2023-06-22T03:09:07;100811.38;;;27.88;44.57
14293;BME280;62290;59.420;17.842;2023-06-22T03:11:36;100819.34;;;27.90;44.81
14293;BME280;62290;59.420;17.842;2023-06-22T03:14:04;100817.97;;;27.86;44.78
14293;BME280;62290;59.420;17.842;2023-06-22T03:16:32;100803.38;;;27.79;44.80
14293;BME280;62290;59.420;17.842;2023-06-22T03:19:00;100818.53;;;27.89;44.73
14293;BME280;62290;59.420;17.842;2023-06-22T03:21:30;100819.34;;;27.90;44.82
14293;BME280;62290;59.420;17.842;2023-06-22T03:23:59;100826.78;;;27.88;44.87
14293;BME280;62290;59.420;17.842;2023-06-22T03:26:27;100827.63;;;27.88;44.90
14293;BME280;62290;59.420;17.842;2023-06-22T03:28:56;100815.94;;;27.88;44.81
14293;BME280;62290;59.420;17.842;2023-06-22T03:31:24;100807.81;;;27.88;44.91
14293;BME280;62290;59.420;17.842;2023-06-22T03:33:53;100813.25;;;27.88;44.84
14293;BME280;62290;59.420;17.842;2023-06-22T03:36:22;100813.09;;;27.89;44.96
14293;BME280;62290;59.420;17.842;2023-06-22T03:38:52;100808.50;;;27.90;45.04
14293;BME280;62290;59.420;17.842;2023-06-22T03:41:20;100806.81;;;27.89;44.74
14293;BME280;62290;59.420;17.842;2023-06-22T03:43:49;100811.22;;;27.90;44.84
14293;BME280;62290;59.420;17.842;2023-06-22T03:46:17;100812.06;;;27.90;45.07
14293;BME280;62290;59.420;17.842;2023-06-22T03:48:46;100810.22;;;27.91;44.89
14293;BME280;62290;59.420;17.842;2023-06-22T03:51:14;100811.94;;;27.92;44.78
14293;BME280;62290;59.420;17.842;2023-06-22T03:53:42;100819.19;;;27.91;44.82
14293;BME280;62290;59.420;17.842;2023-06-22T03:56:12;100806.66;;;27.90;44.77
14293;BME280;62290;59.420;17.842;2023-06-22T03:58:46;100818.16;;;27.92;44.76
14293;BME280;62290;59.420;17.842;2023-06-22T04:01:14;100810.22;;;27.91;44.72
14293;BME280;62290;59.420;17.842;2023-06-22T04:03:43;100789.84;;;27.79;44.73
14293;BME280;62290;59.420;17.842;2023-06-22T04:06:12;100813.09;;;27.89;44.60
14293;BME280;62290;59.420;17.842;2023-06-22T04:08:39;100812.25;;;27.89;44.79
14293;BME280;62290;59.420;17.842;2023-06-22T04:11:07;100815.81;;;27.89;44.71
14293;BME280;62290;59.420;17.842;2023-06-22T04:13:37;100807.69;;;27.89;44.79
14293;BME280;62290;59.420;17.842;2023-06-22T04:16:05;100794.41;;;27.78;44.84
14293;BME280;62290;59.420;17.842;2023-06-22T04:18:33;100812.25;;;27.89;44.75
14293;BME280;62290;59.420;17.842;2023-06-22T04:21:01;100791.16;;;27.75;44.64
14293;BME280;62290;59.420;17.842;2023-06-22T04:23:30;100817.34;;;27.92;44.78
14293;BME280;62290;59.420;17.842;2023-06-22T04:25:58;100821.75;;;27.93;44.94
14293;BME280;62290;59.420;17.842;2023-06-22T04:28:26;100816.19;;;27.94;44.66
14293;BME280;62290;59.420;17.842;2023-06-22T04:30:56;100823.13;;;27.97;44.61
14293;BME280;62290;59.420;17.842;2023-06-22T04:33:29;100820.44;;;27.97;44.49
14293;BME280;62290;59.420;17.842;2023-06-22T04:35:58;100820.94;;;28.00;44.42
14293;BME280;62290;59.420;17.842;2023-06-22T04:38:27;100821.69;;;28.02;44.27
14293;BME280;62290;59.420;17.842;2023-06-22T04:40:55;100817.94;;;28.03;44.10
14293;BME280;62290;59.420;17.842;2023-06-22T04:43:23;100823.22;;;28.05;44.02
14293;BME280;62290;59.420;17.842;2023-06-22T04:45:52;100822.19;;;28.06;44.19
14293;BME280;62290;59.420;17.842;2023-06-22T04:48:21;100773.72;;;27.77;43.98
14293;BME280;62290;59.420;17.842;2023-06-22T04:50:49;100818.16;;;28.10;43.88
14293;BME280;62290;59.420;17.842;2023-06-22T04:53:17;100823.28;;;28.13;43.79
14293;BME280;62290;59.420;17.842;2023-06-22T04:55:45;100828.19;;;28.17;43.75
14293;BME280;62290;59.420;17.842;2023-06-22T04:58:15;100836.00;;;28.21;43.57
14293;BME280;62290;59.420;17.842;2023-06-22T05:00:46;100829.25;;;28.25;43.45
14293;BME280;62290;59.420;17.842;2023-06-22T05:03:17;100826.22;;;28.28;43.25
14293;BME280;62290;59.420;17.842;2023-06-22T05:05:48;100824.03;;;28.31;43.28
14293;BME280;62290;59.420;17.842;2023-06-22T05:08:16;100830.13;;;28.33;43.15
14293;BME280;62290;59.420;17.842;2023-06-22T05:10:44;100811.50;;;28.30;43.08
14293;BME280;62290;59.420;17.842;2023-06-22T05:13:31;100829.09;;;28.34;42.80
14293;BME280;62290;59.420;17.842;2023-06-22T05:15:59;100827.28;;;28.43;42.53
14293;BME280;62290;59.420;17.842;2023-06-22T05:18:30;100829.50;;;28.47;42.48
14293;BME280;62290;59.420;17.842;2023-06-22T05:21:00;100821.06;;;28.50;42.47
14293;BME280;62290;59.420;17.842;2023-06-22T05:23:29;100802.22;;;28.41;42.19
14293;BME280;62290;59.420;17.842;2023-06-22T05:25:57;100819.72;;;28.54;41.95
14293;BME280;62290;59.420;17.842;2023-06-22T05:28:25;100823.13;;;28.56;41.75
14293;BME280;62290;59.420;17.842;2023-06-22T05:30:54;100826.50;;;28.58;41.84
14293;BME280;62290;59.420;17.842;2023-06-22T05:33:22;100818.94;;;28.62;41.57
14293;BME280;62290;59.420;17.842;2023-06-22T05:35:50;100829.59;;;28.63;41.70
14293;BME280;62290;59.420;17.842;2023-06-22T05:38:19;100827.56;;;28.65;41.18
14293;BME280;62290;59.420;17.842;2023-06-22T05:40:48;100820.47;;;28.64;41.08
14293;BME280;62290;59.420;17.842;2023-06-22T05:43:15;100829.28;;;28.66;41.28
14293;BME280;62290;59.420;17.842;2023-06-22T05:45:43;100764.72;;;28.28;40.76
14293;BME280;62290;59.420;17.842;2023-06-22T05:48:11;100828.59;;;28.64;41.34
14293;BME280;62290;59.420;17.842;2023-06-22T05:50:39;100830.47;;;28.64;40.89
14293;BME280;62290;59.420;17.842;2023-06-22T05:53:07;100814.63;;;28.51;40.85
14293;BME280;62290;59.420;17.842;2023-06-22T05:55:37;100832.59;;;28.60;40.88
14293;BME280;62290;59.420;17.842;2023-06-22T05:58:05;100831.94;;;28.58;40.99
14293;BME280;62290;59.420;17.842;2023-06-22T06:00:34;100827.69;;;28.56;41.05
14293;BME280;62290;59.420;17.842;2023-06-22T06:03:02;100831.44;;;28.55;41.17
14293;BME280;62290;59.420;17.842;2023-06-22T06:05:31;100833.44;;;28.53;41.14
14293;BME280;62290;59.420;17.842;2023-06-22T06:07:59;100837.31;;;28.50;41.26
14293;BME280;62290;59.420;17.842;2023-06-22T06:10:28;100843.78;;;28.49;41.42
14293;BME280;62290;59.420;17.842;2023-06-22T06:12:58;100841.22;;;28.48;41.44
14293;BME280;62290;59.420;17.842;2023-06-22T06:15:29;100843.56;;;28.43;41.61
14293;BME280;62290;59.420;17.842;2023-06-22T06:17:57;100842.69;;;28.42;41.85
14293;BME280;62290;59.420;17.842;2023-06-22T06:20:26;100840.16;;;28.41;41.83
14293;BME280;62290;59.420;17.842;2023-06-22T06:22:56;100842.69;;;28.42;41.96
14293;BME280;62290;59.420;17.842;2023-06-22T06:25:24;100840.72;;;28.44;42.03
14293;BME280;62290;59.420;17.842;2023-06-22T06:27:52;100840.72;;;28.44;42.09
14293;BME280;62290;59.420;17.842;2023-06-22T06:30:23;100840.53;;;28.46;41.94
14293;BME280;62290;59.420;17.842;2023-06-22T06:32:51;100849.53;;;28.46;42.03
14293;BME280;62290;59.420;17.842;2023-06-22T06:35:19;100849.53;;;28.46;42.03
14293;BME280;62290;59.420;17.842;2023-06-22T06:37:50;100837.63;;;28.47;41.93
14293;BME280;62290;59.420;17.842;2023-06-22T06:40:18;100835.97;;;28.46;42.13
14293;BME280;62290;59.420;17.842;2023-06-22T06:42:48;100844.59;;;28.50;41.92
14293;BME280;62290;59.420;17.842;2023-06-22T06:45:18;100845.44;;;28.50;41.94
14293;BME280;62290;59.420;17.842;2023-06-22T06:47:48;100840.03;;;28.50;41.91
14293;BME280;62290;59.420;17.842;2023-06-22T06:50:17;100852.06;;;28.48;41.64
14293;BME280;62290;59.420;17.842;2023-06-22T06:52:45;100841.75;;;28.51;41.63
14293;BME280;62290;59.420;17.842;2023-06-22T06:55:13;100849.69;;;28.53;41.59
14293;BME280;62290;59.420;17.842;2023-06-22T06:57:42;100854.81;;;28.56;41.84
14293;BME280;62290;59.420;17.842;2023-06-22T07:00:11;100848.53;;;28.55;41.62
14293;BME280;62290;59.420;17.842;2023-06-22T07:02:42;100855.34;;;28.59;41.25
14293;BME280;62290;59.420;17.842;2023-06-22T07:05:12;100848.78;;;28.62;40.98
14293;BME280;62290;59.420;17.842;2023-06-22T07:07:40;100860.28;;;28.64;41.16
14293;BME280;62290;59.420;17.842;2023-06-22T07:10:10;100850.97;;;28.66;41.18
14293;BME280;62290;59.420;17.842;2023-06-22T07:12:38;100853.69;;;28.66;40.86
14293;BME280;62290;59.420;17.842;2023-06-22T07:15:08;100866.06;;;28.69;41.18
14293;BME280;62290;59.420;17.842;2023-06-22T07:17:37;100856.09;;;28.69;40.93
14293;BME280;62290;59.420;17.842;2023-06-22T07:20:07;100831.06;;;28.58;41.13
14293;BME280;62290;59.420;17.842;2023-06-22T07:22:38;100855.22;;;28.69;40.95
14293;BME280;62290;59.420;17.842;2023-06-22T07:25:07;100869.31;;;28.72;40.89
14293;BME280;62290;59.420;17.842;2023-06-22T07:27:37;100873.72;;;28.73;40.95
14293;BME280;62290;59.420;17.842;2023-06-22T07:30:08;100869.16;;;28.74;40.78
14293;BME280;62290;59.420;17.842;2023-06-22T07:32:36;100864.56;;;28.74;40.69
14293;BME280;62290;59.420;17.842;2023-06-22T07:35:05;100861.50;;;28.69;40.78
14293;BME280;62290;59.420;17.842;2023-06-22T07:37:33;100871.84;;;28.74;40.42
14293;BME280;62290;59.420;17.842;2023-06-22T07:40:04;100873.72;;;28.73;40.67
14293;BME280;62290;59.420;17.842;2023-06-22T07:42:33;100859.66;;;28.70;40.40
14293;BME280;62290;59.420;17.842;2023-06-22T07:45:02;100855.91;;;28.71;40.32
14293;BME280;62290;59.420;17.842;2023-06-22T07:47:30;100854.72;;;28.73;40.53
14293;BME280;62290;59.420;17.842;2023-06-22T07:50:03;100854.91;;;28.72;40.79
14293;BME280;62290;59.420;17.842;2023-06-22T07:52:31;100859.16;;;28.74;40.70
14293;BME280;62290;59.420;17.842;2023-06-22T07:55:00;100800.53;;;28.48;40.84
14293;BME280;62290;59.420;17.842;2023-06-22T07:57:30;100849.66;;;28.78;40.38
14293;BME280;62290;59.420;17.842;2023-06-22T08:00:03;100853.06;;;28.81;40.33
14293;BME280;62290;59.420;17.842;2023-06-22T08:02:38;100846.47;;;28.83;40.78
14293;BME280;62290;59.420;17.842;2023-06-22T08:05:07;100858.84;;;28.86;40.34
14293;BME280;62290;59.420;17.842;2023-06-22T08:07:48;100837.47;;;28.83;40.66
14293;BME280;62290;59.420;17.842;2023-06-22T08:10:18;100842.06;;;28.90;40.45
14293;BME280;62290;59.420;17.842;2023-06-22T08:12:48;100842.59;;;28.94;40.11
14293;BME280;62290;59.420;17.842;2023-06-22T08:15:16;100844.28;;;28.95;40.25
14293;BME280;62290;59.420;17.842;2023-06-22T08:17:45;100841.06;;;28.99;40.25
14293;BME280;62290;59.420;17.842;2023-06-22T08:20:13;100812.03;;;28.84;40.08
14293;BME280;62290;59.420;17.842;2023-06-22T08:22:43;100842.25;;;29.05;40.00
14293;BME280;62290;59.420;17.842;2023-06-22T08:25:11;100838.88;;;29.03;39.68
14293;BME280;62290;59.420;17.842;2023-06-22T08:27:40;100846.69;;;29.06;39.71
14293;BME280;62290;59.420;17.842;2023-06-22T08:30:10;100845.69;;;29.07;40.06
14293;BME280;62290;59.420;17.842;2023-06-22T08:32:39;100851.25;;;29.05;40.13
14293;BME280;62290;59.420;17.842;2023-06-22T08:35:07;100836.69;;;28.98;40.13
14293;BME280;62290;59.420;17.842;2023-06-22T08:37:36;100840.41;;;29.05;39.68
14293;BME280;62290;59.420;17.842;2023-06-22T08:40:08;100849.41;;;29.06;39.83
14293;BME280;62290;59.420;17.842;2023-06-22T08:42:40;100846.38;;;29.09;39.72
14293;BME280;62290;59.420;17.842;2023-06-22T08:45:11;100842.63;;;29.10;39.89
14293;BME280;62290;59.420;17.842;2023-06-22T08:47:39;100845.31;;;29.10;39.64
14293;BME280;62290;59.420;17.842;2023-06-22T08:50:09;100849.56;;;29.12;39.58
14293;BME280;62290;59.420;17.842;2023-06-22T08:52:39;100845.19;;;29.11;39.61
14293;BME280;62290;59.420;17.842;2023-06-22T08:55:08;100852.28;;;29.12;39.46
14293;BME280;62290;59.420;17.842;2023-06-22T08:57:37;100830.75;;;29.03;39.31
14293;BME280;62290;59.420;17.842;2023-06-22T09:00:07;100854.53;;;29.17;39.37
14293;BME280;62290;59.420;17.842;2023-06-22T09:02:53;100841.63;;;29.19;39.64
14293;BME280;62290;59.420;17.842;2023-06-22T09:05:25;100850.47;;;29.21;39.37
14293;BME280;62290;59.420;17.842;2023-06-22T09:07:56;100843.00;;;29.23;39.22
14293;BME280;62290;59.420;17.842;2023-06-22T09:10:25;100841.00;;;29.25;39.57
14293;BME280;62290;59.420;17.842;2023-06-22T09:12:53;100845.38;;;29.26;39.39
14293;BME280;62290;59.420;17.842;2023-06-22T09:15:22;100830.63;;;29.28;39.67
14293;BME280;62290;59.420;17.842;2023-06-22T09:17:50;100828.78;;;29.29;39.68
14293;BME280;62290;59.420;17.842;2023-06-22T09:20:22;100822.00;;;29.33;39.65
14293;BME280;62290;59.420;17.842;2023-06-22T09:22:50;100825.41;;;29.35;39.58
14293;BME280;62290;59.420;17.842;2023-06-22T09:25:19;100829.44;;;29.39;39.36
14293;BME280;62290;59.420;17.842;2023-06-22T09:27:47;100828.44;;;29.40;39.47
14293;BME280;62290;59.420;17.842;2023-06-22T09:30:15;100824.69;;;29.41;38.90
14293;BME280;62290;59.420;17.842;2023-06-22T09:32:44;100821.97;;;29.41;38.53
14293;BME280;62290;59.420;17.842;2023-06-22T09:35:12;100823.03;;;29.40;38.22
14293;BME280;62290;59.420;17.842;2023-06-22T09:37:42;100827.25;;;29.43;38.44
14293;BME280;62290;59.420;17.842;2023-06-22T09:40:10;100835.41;;;29.43;37.75
14293;BME280;62290;59.420;17.842;2023-06-22T09:42:41;100831.66;;;29.44;37.95
14293;BME280;62290;59.420;17.842;2023-06-22T09:45:09;100832.69;;;29.43;37.65
14293;BME280;62290;59.420;17.842;2023-06-22T09:47:37;100822.84;;;29.42;37.68
14293;BME280;62290;59.420;17.842;2023-06-22T09:50:06;100828.25;;;29.42;37.19
14293;BME280;62290;59.420;17.842;2023-06-22T09:52:35;100817.25;;;29.35;37.70
14293;BME280;62290;59.420;17.842;2023-06-22T09:55:08;100828.13;;;29.43;37.23
14293;BME280;62290;59.420;17.842;2023-06-22T09:57:36;100830.13;;;29.41;37.29
14293;BME280;62290;59.420;17.842;2023-06-22T10:00:05;100821.84;;;29.43;37.25
14293;BME280;62290;59.420;17.842;2023-06-22T10:02:37;100820.47;;;29.38;37.63
14293;BME280;62290;59.420;17.842;2023-06-22T10:05:06;100822.84;;;29.42;37.64
14293;BME280;62290;59.420;17.842;2023-06-22T10:07:35;100818.44;;;29.41;37.23
14293;BME280;62290;59.420;17.842;2023-06-22T10:10:08;100811.81;;;29.43;37.30
14293;BME280;62290;59.420;17.842;2023-06-22T10:12:40;100817.25;;;29.43;37.25
14293;BME280;62290;59.420;17.842;2023-06-22T10:15:10;100819.78;;;29.45;37.33
14293;BME280;62290;59.420;17.842;2023-06-22T10:17:38;100804.50;;;29.44;36.83
14293;BME280;62290;59.420;17.842;2023-06-22T10:20:08;100811.63;;;29.45;36.82
14293;BME280;62290;59.420;17.842;2023-06-22T10:22:39;100807.41;;;29.42;37.21
14293;BME280;62290;59.420;17.842;2023-06-22T10:25:10;100780.91;;;29.28;36.89
14293;BME280;62290;59.420;17.842;2023-06-22T10:27:38;100804.69;;;29.42;36.71
14293;BME280;62290;59.420;17.842;2023-06-22T10:30:09;100806.72;;;29.40;36.58
14293;BME280;62290;59.420;17.842;2023-06-22T10:32:37;100801.44;;;29.38;36.87
14293;BME280;62290;59.420;17.842;2023-06-22T10:35:06;100802.63;;;29.36;36.63
14293;BME280;62290;59.420;17.842;2023-06-22T10:37:35;100804.69;;;29.34;36.49
14293;BME280;62290;59.420;17.842;2023-06-22T10:40:04;100806.72;;;29.32;36.54
14293;BME280;62290;59.420;17.842;2023-06-22T10:42:34;100801.28;;;29.32;36.67
14293;BME280;62290;59.420;17.842;2023-06-22T10:45:02;100803.34;;;29.30;36.46
14293;BME280;62290;59.420;17.842;2023-06-22T10:47:30;100808.06;;;29.28;36.49
14293;BME280;62290;59.420;17.842;2023-06-22T10:49:58;100813.69;;;29.26;36.54
14293;BME280;62290;59.420;17.842;2023-06-22T10:52:27;100788.88;;;29.13;36.55
14293;BME280;62290;59.420;17.842;2023-06-22T10:54:55;100817.38;;;29.25;36.41
14293;BME280;62290;59.420;17.842;2023-06-22T10:57:23;100812.31;;;29.22;36.56
14293;BME280;62290;59.420;17.842;2023-06-22T10:59:52;100802.28;;;29.23;36.39
14293;BME280;62290;59.420;17.842;2023-06-22T11:02:20;100816.19;;;29.20;36.39
14293;BME280;62290;59.420;17.842;2023-06-22T11:04:48;100802.78;;;29.18;36.28
14293;BME280;62290;59.420;17.842;2023-06-22T11:07:16;100802.78;;;29.18;36.30
14293;BME280;62290;59.420;17.842;2023-06-22T11:09:45;100798.38;;;29.17;36.52
14293;BME280;62290;59.420;17.842;2023-06-22T11:12:13;100809.38;;;29.16;36.38
14293;BME280;62290;59.420;17.842;2023-06-22T11:14:41;100809.56;;;29.14;36.21
14293;BME280;62290;59.420;17.842;2023-06-22T11:17:10;100811.44;;;29.14;36.41
14293;BME280;62290;59.420;17.842;2023-06-22T11:19:38;100816.84;;;29.14;36.64
14293;BME280;62290;59.420;17.842;2023-06-22T11:22:06;100803.63;;;29.11;36.52
14293;BME280;62290;59.420;17.842;2023-06-22T11:24:34;100810.22;;;29.08;36.55
14293;BME280;62290;59.420;17.842;2023-06-22T11:27:02;100806.66;;;29.08;36.46
14293;BME280;62290;59.420;17.842;2023-06-22T11:29:32;100811.22;;;29.07;36.44
14293;BME280;62290;59.420;17.842;2023-06-22T11:32:05;100803.28;;;29.06;36.45
14293;BME280;62290;59.420;17.842;2023-06-22T11:34:37;100803.28;;;29.06;36.75
14293;BME280;62290;59.420;17.842;2023-06-22T11:37:05;100801.75;;;29.03;36.70
14293;BME280;62290;59.420;17.842;2023-06-22T11:39:33;100804.47;;;29.03;36.78
14293;BME280;62290;59.420;17.842;2023-06-22T11:42:13;100802.25;;;28.99;36.48
14293;BME280;62290;59.420;17.842;2023-06-22T11:44:42;100802.75;;;29.02;36.72
14293;BME280;62290;59.420;17.842;2023-06-22T11:47:10;100801.22;;;29.00;36.72
14293;BME280;62290;59.420;17.842;2023-06-22T11:49:40;100800.03;;;29.02;36.62
14293;BME280;62290;59.420;17.842;2023-06-22T11:52:08;100797.50;;;29.01;36.73
14293;BME280;62290;59.420;17.842;2023-06-22T11:54:36;100800.22;;;29.01;36.88
14293;BME280;62290;59.420;17.842;2023-06-22T11:57:05;100799.22;;;29.02;36.95
14293;BME280;62290;59.420;17.842;2023-06-22T11:59:33;100792.94;;;29.01;36.79
14293;BME280;62290;59.420;17.842;2023-06-22T12:02:01;100792.06;;;29.01;36.69
14293;BME280;62290;59.420;17.842;2023-06-22T12:04:30;100799.38;;;29.00;36.64
14293;BME280;62290;59.420;17.842;2023-06-22T12:06:59;100798.50;;;29.00;36.86
14293;BME280;62290;59.420;17.842;2023-06-22T12:09:27;100792.41;;;28.98;36.61
14293;BME280;62290;59.420;17.842;2023-06-22T12:11:55;100807.50;;;29.00;36.65
14293;BME280;62290;59.420;17.842;2023-06-22T12:14:24;100807.50;;;29.00;37.03
14293;BME280;62290;59.420;17.842;2023-06-22T12:16:52;100803.94;;;29.00;36.69
14293;BME280;62290;59.420;17.842;2023-06-22T12:19:20;100793.09;;;29.00;36.63
14293;BME280;62290;59.420;17.842;2023-06-22T12:21:48;100793.94;;;29.00;36.88
14293;BME280;62290;59.420;17.842;2023-06-22T12:24:18;100789.69;;;28.98;36.75
14293;BME280;62290;59.420;17.842;2023-06-22T12:26:46;100803.94;;;29.00;36.88
14293;BME280;62290;59.420;17.842;2023-06-22T12:29:14;100810.41;;;28.99;37.17
14293;BME280;62290;59.420;17.842;2023-06-22T12:31:42;100803.94;;;29.00;36.83
14293;BME280;62290;59.420;17.842;2023-06-22T12:34:10;100802.25;;;28.99;36.81
14293;BME280;62290;59.420;17.842;2023-06-22T12:36:39;100802.25;;;28.99;36.85
14293;BME280;62290;59.420;17.842;2023-06-22T12:39:07;100809.34;;;29.00;37.12
14293;BME280;62290;59.420;17.842;2023-06-22T12:41:36;100790.22;;;29.01;36.99
14293;BME280;62290;59.420;17.842;2023-06-22T12:44:05;100799.22;;;29.02;37.14
14293;BME280;62290;59.420;17.842;2023-06-22T12:46:33;100795.31;;;29.04;36.91
14293;BME280;62290;59.420;17.842;2023-06-22T12:49:04;100792.41;;;29.06;37.49
14293;BME280;62290;59.420;17.842;2023-06-22T12:51:33;100794.13;;;29.07;37.53